Aegean Princess — ZDID9 — position and weather

sailwx.info

Track history (hours):
 
Tides and Currents Weather Stations Pressure Air Temp Water Temp Dewpoint Dewpoint Depression Visibility Wind Speed Wind Dir Waves Ship Positions

Aegean Princess

Last reported at 2017-Feb-28 05:31 UTC. Time now 2017-Feb-28 05:40 UTC.
Position N 37°54' E 023°33'.

Length 100 m.

Type: Ship. MMSI: 236111476.

Date/timePositionNaut miles runAvg speedWind from/ knotsBaromVisibWave heightAir tempDewpointWater temp
2017-Feb-28 05:31N 37°54' E 023°33'0 0.0
2017-Feb-28 04:31N 37°54' E 023°33'0 0.0
2017-Feb-28 03:31N 37°54' E 023°33'0 0.0
2017-Feb-28 02:31N 37°54' E 023°33'0 0.0
2017-Feb-28 01:33N 37°54' E 023°33'0 0.0
2017-Feb-28 00:31N 37°54' E 023°33'0 0.0
2017-Feb-27 23:31N 37°54' E 023°33'0 0.0
2017-Feb-27 22:33N 37°54' E 023°33'0 0.0
2017-Feb-27 21:31N 37°54' E 023°33'0 0.0
2017-Feb-27 20:31N 37°54' E 023°33'0 0.0
2017-Feb-27 19:31N 37°54' E 023°33'0 0.0
2017-Feb-27 18:31N 37°54' E 023°33'0 0.0
2017-Feb-27 17:31N 37°54' E 023°33'0 0.0
2017-Feb-27 16:32N 37°54' E 023°33'0 0.1
2017-Feb-27 15:34N 37°54' E 023°33'0 0.0
2017-Feb-27 14:33N 37°54' E 023°33'0 0.0
2017-Feb-27 13:33N 37°54' E 023°33'0 0.0
2017-Feb-27 12:33N 37°54' E 023°33'0 0.0
2017-Feb-27 11:33N 37°54' E 023°33'0 0.1
2017-Feb-27 10:33N 37°54' E 023°33'0 0.0
2017-Feb-27 09:33N 37°54' E 023°33'0 0.0
2017-Feb-27 08:33N 37°54' E 023°33'0 0.0
2017-Feb-27 07:33N 37°54' E 023°33'0 0.0
2017-Feb-27 06:33N 37°54' E 023°33'0 0.0
2017-Feb-27 05:33N 37°54' E 023°33'0 0.0
2017-Feb-27 04:33N 37°54' E 023°33'0 0.0
2017-Feb-27 03:33N 37°54' E 023°33'0 0.0
2017-Feb-27 02:33N 37°54' E 023°33'0 0.0
2017-Feb-27 01:33N 37°54' E 023°33'0 0.0
2017-Feb-27 00:33N 37°54' E 023°33'0 0.0
2017-Feb-26 23:33N 37°54' E 023°33'0 0.0
2017-Feb-26 22:33N 37°54' E 023°33'0 0.0
2017-Feb-26 21:33N 37°54' E 023°33'0 0.0
2017-Feb-26 20:33N 37°54' E 023°33'0 0.0
2017-Feb-26 19:33N 37°54' E 023°33'0 0.0
2017-Feb-26 18:33N 37°54' E 023°33'0 0.0
2017-Feb-26 17:33N 37°54' E 023°33'0 0.0
2017-Feb-26 16:33N 37°54' E 023°33'0 0.0
2017-Feb-26 15:33N 37°54' E 023°33'0 0.0
2017-Feb-26 14:33N 37°54' E 023°33'0 0.0
2017-Feb-26 13:33N 37°54' E 023°33'0 0.0
2017-Feb-26 12:33N 37°54' E 023°33'0 0.1
2017-Feb-26 11:33N 37°54' E 023°33'0 0.0
2017-Feb-26 10:32N 37°54' E 023°33'0 0.1
2017-Feb-26 09:32N 37°54' E 023°33'0 0.0
2017-Feb-26 08:32N 37°54' E 023°33'0 0.0
2017-Feb-26 07:32N 37°54' E 023°33'0 0.0
2017-Feb-26 06:32N 37°54' E 023°33'0 0.0
2017-Feb-26 05:32N 37°54' E 023°33'2 2.4
2017-Feb-26 04:33N 37°52' E 023°35'7 7.0
2017-Feb-26 03:33N 37°47' E 023°41'7 7.5
2017-Feb-26 02:34N 37°40' E 023°45'9 7.4
2017-Feb-26 01:19N 37°31' E 023°47'6 7.6
2017-Feb-26 00:34N 37°26' E 023°43'10 7.7
2017-Feb-25 23:18N 37°18' E 023°37'6 7.3
2017-Feb-25 22:32N 37°13' E 023°34'7 7.4
2017-Feb-25 21:33N 37°07' E 023°29'8 7.5
2017-Feb-25 20:31N 37°01' E 023°23'418 8.8
2017-Feb-23 21:11N 36°37' E 014°42'1010.5
2017-Feb-23 20:15N 36°40' E 014°31'710.5
2017-Feb-23 19:33N 36°42' E 014°22'1010.1
2017-Feb-23 18:32N 36°44' E 014°09'10 9.8
2017-Feb-23 17:33N 36°46' E 013°57'10 9.9
2017-Feb-23 16:33N 36°48' E 013°45'  
2017-Feb-19 00:16N 36°06' W 004°58'7 9.6
2017-Feb-18 23:33N 36°05' W 005°07'10 9.6
2017-Feb-18 22:34N 36°05' W 005°19'5 4.7
2017-Feb-18 21:33N 36°08' W 005°23'0 0.3
2017-Feb-18 20:32N 36°08' W 005°22'0 0.1
2017-Feb-18 19:32N 36°08' W 005°22'0 0.0
2017-Feb-18 18:32N 36°08' W 005°22'0 0.0
2017-Feb-18 17:32N 36°08' W 005°22'0 0.0
2017-Feb-18 16:32N 36°08' W 005°22'0 0.0
2017-Feb-18 15:32N 36°08' W 005°22'0 0.0
2017-Feb-18 14:32N 36°08' W 005°22'0 0.1
2017-Feb-18 13:32N 36°08' W 005°22'0 0.1
2017-Feb-18 12:29N 36°08' W 005°22'0 0.0
2017-Feb-18 11:32N 36°08' W 005°22'0 0.0
2017-Feb-18 10:32N 36°08' W 005°22'0 0.0
2017-Feb-18 09:33N 36°08' W 005°22'0 0.1
2017-Feb-18 08:33N 36°08' W 005°22'0 0.1
2017-Feb-18 07:33N 36°08' W 005°22'0 0.0
2017-Feb-18 06:34N 36°08' W 005°22'0 0.1
2017-Feb-18 05:34N 36°08' W 005°22'  
Track history (hours):
 
Tides and Currents Weather Stations Pressure Air Temp Water Temp Dewpoint Dewpoint Depression Visibility Wind Speed Wind Dir Waves Ship Positions

Aegean Princess

Last reported at 2017-Feb-28 05:31 UTC. Time now 2017-Feb-28 05:40 UTC.
Position N 37°54' E 023°33'.

Length 100 m.

Type: Ship. MMSI: 236111476.

Date/timePositionNaut miles runAvg speedWind from/ knotsBaromVisibWave heightAir tempDewpointWater temp
2017-Feb-28 05:31N 37°54' E 023°33'0 0.0
2017-Feb-28 04:31N 37°54' E 023°33'0 0.0
2017-Feb-28 03:31N 37°54' E 023°33'0 0.0
2017-Feb-28 02:31N 37°54' E 023°33'0 0.0
2017-Feb-28 01:33N 37°54' E 023°33'0 0.0
2017-Feb-28 00:31N 37°54' E 023°33'0 0.0
2017-Feb-27 23:31N 37°54' E 023°33'0 0.0
2017-Feb-27 22:33N 37°54' E 023°33'0 0.0
2017-Feb-27 21:31N 37°54' E 023°33'0 0.0
2017-Feb-27 20:31N 37°54' E 023°33'0 0.0
2017-Feb-27 19:31N 37°54' E 023°33'0 0.0
2017-Feb-27 18:31N 37°54' E 023°33'0 0.0
2017-Feb-27 17:31N 37°54' E 023°33'0 0.0
2017-Feb-27 16:32N 37°54' E 023°33'0 0.1
2017-Feb-27 15:34N 37°54' E 023°33'0 0.0
2017-Feb-27 14:33N 37°54' E 023°33'0 0.0
2017-Feb-27 13:33N 37°54' E 023°33'0 0.0
2017-Feb-27 12:33N 37°54' E 023°33'0 0.0
2017-Feb-27 11:33N 37°54' E 023°33'0 0.1
2017-Feb-27 10:33N 37°54' E 023°33'0 0.0
2017-Feb-27 09:33N 37°54' E 023°33'0 0.0
2017-Feb-27 08:33N 37°54' E 023°33'0 0.0
2017-Feb-27 07:33N 37°54' E 023°33'0 0.0
2017-Feb-27 06:33N 37°54' E 023°33'0 0.0
2017-Feb-27 05:33N 37°54' E 023°33'0 0.0
2017-Feb-27 04:33N 37°54' E 023°33'0 0.0
2017-Feb-27 03:33N 37°54' E 023°33'0 0.0
2017-Feb-27 02:33N 37°54' E 023°33'0 0.0
2017-Feb-27 01:33N 37°54' E 023°33'0 0.0
2017-Feb-27 00:33N 37°54' E 023°33'0 0.0
2017-Feb-26 23:33N 37°54' E 023°33'0 0.0
2017-Feb-26 22:33N 37°54' E 023°33'0 0.0
2017-Feb-26 21:33N 37°54' E 023°33'0 0.0
2017-Feb-26 20:33N 37°54' E 023°33'0 0.0
2017-Feb-26 19:33N 37°54' E 023°33'0 0.0
2017-Feb-26 18:33N 37°54' E 023°33'0 0.0
2017-Feb-26 17:33N 37°54' E 023°33'0 0.0
2017-Feb-26 16:33N 37°54' E 023°33'0 0.0
2017-Feb-26 15:33N 37°54' E 023°33'0 0.0
2017-Feb-26 14:33N 37°54' E 023°33'0 0.0
2017-Feb-26 13:33N 37°54' E 023°33'0 0.0
2017-Feb-26 12:33N 37°54' E 023°33'0 0.1
2017-Feb-26 11:33N 37°54' E 023°33'0 0.0
2017-Feb-26 10:32N 37°54' E 023°33'0 0.1
2017-Feb-26 09:32N 37°54' E 023°33'0 0.0
2017-Feb-26 08:32N 37°54' E 023°33'0 0.0
2017-Feb-26 07:32N 37°54' E 023°33'0 0.0
2017-Feb-26 06:32N 37°54' E 023°33'0 0.0
2017-Feb-26 05:32N 37°54' E 023°33'2 2.4
2017-Feb-26 04:33N 37°52' E 023°35'7 7.0
2017-Feb-26 03:33N 37°47' E 023°41'7 7.5
2017-Feb-26 02:34N 37°40' E 023°45'9 7.4
2017-Feb-26 01:19N 37°31' E 023°47'6 7.6
2017-Feb-26 00:34N 37°26' E 023°43'10 7.7
2017-Feb-25 23:18N 37°18' E 023°37'6 7.3
2017-Feb-25 22:32N 37°13' E 023°34'7 7.4
2017-Feb-25 21:33N 37°07' E 023°29'8 7.5
2017-Feb-25 20:31N 37°01' E 023°23'418 8.8
2017-Feb-23 21:11N 36°37' E 014°42'1010.5
2017-Feb-23 20:15N 36°40' E 014°31'710.5
2017-Feb-23 19:33N 36°42' E 014°22'1010.1
2017-Feb-23 18:32N 36°44' E 014°09'10 9.8
2017-Feb-23 17:33N 36°46' E 013°57'10 9.9
2017-Feb-23 16:33N 36°48' E 013°45'  
2017-Feb-19 00:16N 36°06' W 004°58'7 9.6
2017-Feb-18 23:33N 36°05' W 005°07'10 9.6
2017-Feb-18 22:34N 36°05' W 005°19'5 4.7
2017-Feb-18 21:33N 36°08' W 005°23'0 0.3
2017-Feb-18 20:32N 36°08' W 005°22'0 0.1
2017-Feb-18 19:32N 36°08' W 005°22'0 0.0
2017-Feb-18 18:32N 36°08' W 005°22'0 0.0
2017-Feb-18 17:32N 36°08' W 005°22'0 0.0
2017-Feb-18 16:32N 36°08' W 005°22'0 0.0
2017-Feb-18 15:32N 36°08' W 005°22'0 0.0
2017-Feb-18 14:32N 36°08' W 005°22'0 0.1
2017-Feb-18 13:32N 36°08' W 005°22'0 0.1
2017-Feb-18 12:29N 36°08' W 005°22'0 0.0
2017-Feb-18 11:32N 36°08' W 005°22'0 0.0
2017-Feb-18 10:32N 36°08' W 005°22'0 0.0
2017-Feb-18 09:33N 36°08' W 005°22'0 0.1
2017-Feb-18 08:33N 36°08' W 005°22'0 0.1
2017-Feb-18 07:33N 36°08' W 005°22'0 0.0
2017-Feb-18 06:34N 36°08' W 005°22'0 0.1
2017-Feb-18 05:34N 36°08' W 005°22'  

Dump ship's entire track history